Time;durP1;ratioP1;P1;durP2;ratioP2;P2;SDS_P1;SDS_P2;PMS_P1;PMS_P2;Temp;Humidity;BMP_temperature;BMP_pressure;BME280_temperature;BME280_humidity;BME280_pressure;Samples;Min_cycle;Max_cycle;Signal;HPM_P1;HPM_P2
2022/12/06 00:00:56;;;;;;;22.27;16.25;;;;;;;6.12;96.50;98345.69;4200277;28;20241;-84
2022/12/06 00:03:00;;;;;;;22.90;14.70;;;;;;;6.10;96.13;98354.44;4197342;28;20596;-84
2022/12/06 00:05:03;;;;;;;25.98;16.52;;;;;;;6.10;96.71;98354.44;4196047;28;20234;-84
2022/12/06 00:07:06;;;;;;;24.38;16.67;;;;;;;6.10;95.79;98346.66;4200858;28;20257;-84
2022/12/06 00:09:16;;;;;;;25.13;17.15;;;;;;;6.08;96.08;98342.50;4202475;28;20365;-85
2022/12/06 00:11:21;;;;;;;24.20;16.38;;;;;;;6.04;95.81;98346.13;4198493;28;20207;-84
2022/12/06 00:13:26;;;;;;;24.45;16.17;;;;;;;6.03;96.07;98342.69;4200159;28;20253;-84
2022/12/06 00:15:29;;;;;;;24.13;17.00;;;;;;;5.96;95.93;98338.72;4193517;28;20533;-84
2022/12/06 00:17:32;;;;;;;29.80;16.38;;;;;;;5.93;95.77;98340.59;4197971;28;20210;-84
2022/12/06 00:19:41;;;;;;;21.10;15.23;;;;;;;5.93;95.86;98335.44;4199703;28;20710;-85
2022/12/06 00:21:46;;;;;;;23.58;15.70;;;;;;;5.92;95.67;98344.91;4181537;28;20867;-84
2022/12/06 00:23:50;;;;;;;29.00;16.20;;;;;;;5.93;95.44;98338.84;4183150;28;20268;-84
2022/12/06 00:25:53;;;;;;;24.35;15.90;;;;;;;5.87;95.36;98346.06;4194713;28;20227;-84
2022/12/06 00:27:56;;;;;;;24.80;15.20;;;;;;;5.83;95.60;98336.75;4179975;28;21084;-84
2022/12/06 00:30:01;;;;;;;26.73;15.13;;;;;;;5.79;95.15;98340.41;4178990;28;20211;-84
2022/12/06 00:32:04;;;;;;;21.80;14.40;;;;;;;5.73;95.25;98336.31;4182571;28;20245;-84
2022/12/06 00:34:08;;;;;;;19.52;14.55;;;;;;;5.73;95.75;98327.72;4178474;28;20581;-84
2022/12/06 00:36:15;;;;;;;18.77;13.95;;;;;;;5.78;96.18;98334.38;4193708;28;20263;-84
2022/12/06 00:38:18;;;;;;;20.65;14.93;;;;;;;5.81;96.04;98336.81;4195445;28;20731;-84
2022/12/06 00:40:21;;;;;;;20.42;13.95;;;;;;;5.84;96.89;98328.91;4182076;28;20211;-84
2022/12/06 00:42:24;;;;;;;18.67;14.50;;;;;;;5.87;96.91;98333.13;4183780;28;20218;-84
2022/12/06 00:44:27;;;;;;;19.70;14.38;;;;;;;5.89;96.97;98336.47;4193451;28;20228;-85
2022/12/06 00:46:33;;;;;;;20.95;14.55;;;;;;;5.89;97.01;98341.66;4198406;28;20202;-84
2022/12/06 00:48:36;;;;;;;23.98;15.25;;;;;;;5.88;96.82;98342.53;4188171;28;20210;-84
2022/12/06 00:50:39;;;;;;;23.40;16.23;;;;;;;5.87;97.10;98343.47;4180826;28;20297;-84
2022/12/06 00:52:42;;;;;;;25.35;15.70;;;;;;;5.89;97.31;98349.41;4196601;28;20329;-84
2022/12/06 00:54:45;;;;;;;24.23;16.70;;;;;;;5.85;97.17;98351.31;4190819;28;20211;-84
2022/12/06 00:56:48;;;;;;;27.15;16.98;;;;;;;5.87;97.19;98346.06;4197605;28;20347;-85
2022/12/06 00:58:51;;;;;;;23.58;16.42;;;;;;;5.88;97.00;98339.97;4179934;28;20210;-85
2022/12/06 01:00:55;;;;;;;19.38;14.85;;;;;;;5.90;97.24;98341.56;4195821;28;20214;-84
2022/12/06 01:02:59;;;;;;;20.80;14.45;;;;;;;5.92;97.65;98338.91;4192576;28;20476;-85
2022/12/06 01:05:02;;;;;;;21.33;14.57;;;;;;;5.94;96.91;98344.84;4184466;28;20233;-84
2022/12/06 01:07:05;;;;;;;20.77;14.85;;;;;;;5.94;97.05;98350.88;4187454;28;20809;-85
2022/12/06 01:09:10;;;;;;;20.73;15.02;;;;;;;5.96;97.13;98343.88;4205674;28;20694;-84
2022/12/06 01:11:15;;;;;;;19.63;14.57;;;;;;;5.99;97.04;98351.50;4198897;28;20205;-84
2022/12/06 01:13:18;;;;;;;20.08;13.70;;;;;;;6.01;97.24;98341.09;4187238;28;20258;-85
2022/12/06 01:15:21;;;;;;;20.38;14.50;;;;;;;6.00;97.02;98345.44;4186807;28;20200;-85
2022/12/06 01:17:24;;;;;;;18.65;14.45;;;;;;;5.99;97.03;98343.75;4193905;28;20244;-84
2022/12/06 01:19:28;;;;;;;20.55;13.65;;;;;;;6.00;96.85;98345.44;4193330;28;20213;-84
2022/12/06 01:21:31;;;;;;;18.48;14.32;;;;;;;6.02;97.19;98346.19;4178423;28;20285;-84
2022/12/06 01:23:35;;;;;;;19.77;14.15;;;;;;;6.03;97.17;98342.69;4182707;28;20600;-84
2022/12/06 01:25:38;;;;;;;20.58;13.93;;;;;;;6.05;97.26;98348.63;4181753;28;20229;-84
2022/12/06 01:27:41;;;;;;;17.13;12.40;;;;;;;6.06;97.11;98336.53;4180443;28;20535;-84
2022/12/06 01:29:44;;;;;;;21.88;13.10;;;;;;;6.06;96.58;98333.94;4193820;28;20261;-84
2022/12/06 01:31:46;;;;;;;15.98;12.65;;;;;;;6.07;96.71;98338.22;4196002;28;20216;-84
2022/12/06 01:33:50;;;;;;;19.42;13.40;;;;;;;6.06;96.71;98333.94;4183428;28;20208;-84
2022/12/06 01:35:54;;;;;;;19.25;13.23;;;;;;;6.05;96.46;98324.50;4183444;28;20524;-84
2022/12/06 01:37:57;;;;;;;18.67;12.30;;;;;;;6.05;96.05;98329.69;4185228;28;20757;-84
2022/12/06 01:40:09;;;;;;;19.60;14.40;;;;;;;6.03;95.67;98329.75;4193156;28;20202;-84
2022/12/06 01:42:13;;;;;;;22.45;15.35;;;;;;;6.01;97.00;98321.22;4187182;28;20288;-84
2022/12/06 01:44:42;;;;;;;25.73;15.70;;;;;;;6.00;96.07;98323.88;4186455;28;20238;-84
2022/12/06 01:46:45;;;;;;;26.00;18.65;;;;;;;5.99;96.44;98320.44;4191915;28;20213;-84
2022/12/06 01:48:50;;;;;;;26.27;16.52;;;;;;;5.99;96.44;98322.22;4197634;28;20224;-84
2022/12/06 01:50:56;;;;;;;19.35;13.35;;;;;;;5.99;96.50;98319.63;4196980;28;20263;-84
2022/12/06 01:53:02;;;;;;;23.30;14.05;;;;;;;5.98;96.78;98323.09;4199053;28;20211;-85
2022/12/06 01:55:07;;;;;;;18.60;11.35;;;;;;;5.95;96.33;98315.47;4199211;28;20202;-84
2022/12/06 01:57:12;;;;;;;19.40;12.88;;;;;;;5.90;95.95;98314.88;4194729;28;20202;-84
2022/12/06 01:59:15;;;;;;;13.63;11.57;;;;;;;5.88;96.25;98316.66;4195479;28;20218;-84
2022/12/06 02:01:18;;;;;;;16.70;12.60;;;;;;;5.86;96.36;98324.50;4181858;28;20293;-84
2022/12/06 02:03:23;;;;;;;16.98;12.10;;;;;;;5.87;96.17;98322.78;4195789;28;20259;-84
2022/12/06 02:05:27;;;;;;;17.48;13.18;;;;;;;5.88;96.65;98327.00;4180455;28;20249;-84
2022/12/06 02:07:32;;;;;;;17.55;13.10;;;;;;;5.90;96.23;98325.22;4192152;28;20763;-84
2022/12/06 02:09:36;;;;;;;15.75;12.07;;;;;;;5.89;96.13;98321.78;4193892;28;20199;-84
2022/12/06 02:11:39;;;;;;;18.33;13.00;;;;;;;5.92;96.01;98323.38;4175234;28;20229;-84
2022/12/06 02:13:42;;;;;;;20.38;12.73;;;;;;;5.93;96.05;98323.31;4176372;28;20238;-84
2022/12/06 02:15:53;;;;;;;18.10;12.82;;;;;;;5.91;96.13;98322.56;4197357;28;20794;-84
2022/12/06 02:17:59;;;;;;;20.23;14.15;;;;;;;5.90;96.32;98318.28;4196406;28;20779;-84
2022/12/06 02:20:22;;;;;;;15.85;12.50;;;;;;;5.91;96.54;98319.13;4181743;28;20198;-84
2022/12/06 02:22:30;;;;;;;22.00;13.80;;;;;;;5.92;96.46;98313.03;4182958;28;20297;-84
2022/12/06 02:24:55;;;;;;;16.15;12.20;;;;;;;5.91;96.96;98309.63;4192226;28;20279;-84
2022/12/06 02:27:09;;;;;;;18.02;13.45;;;;;;;5.94;96.78;98299.13;4194868;28;20209;-84
2022/12/06 02:29:51;;;;;;;19.17;12.60;;;;;;;5.93;96.63;98304.38;4181408;28;20212;-84
2022/12/06 02:31:58;;;;;;;17.23;12.48;;;;;;;5.93;96.50;98300.03;4192594;28;20214;-84
2022/12/06 02:34:07;;;;;;;16.98;12.88;;;;;;;5.93;96.29;98301.78;4194560;28;20289;-84
2022/12/06 02:36:15;;;;;;;17.45;13.55;;;;;;;5.92;96.75;98295.75;4198577;28;20201;-84
2022/12/06 02:38:23;;;;;;;15.52;11.82;;;;;;;5.94;96.47;98299.13;4182616;28;20195;-84
2022/12/06 02:40:32;;;;;;;18.33;13.60;;;;;;;5.95;96.24;98297.38;4194587;28;20879;-84
2022/12/06 02:42:38;;;;;;;17.73;12.73;;;;;;;5.95;96.09;98289.59;4189358;28;20205;-84
2022/12/06 02:44:44;;;;;;;19.77;13.65;;;;;;;5.97;96.18;98300.72;4193326;28;20216;-84
2022/12/06 02:46:49;;;;;;;20.20;13.98;;;;;;;5.94;96.38;98303.44;4194501;28;20661;-84
2022/12/06 02:48:54;;;;;;;18.85;13.48;;;;;;;5.95;96.23;98294.78;4182504;28;20302;-84
2022/12/06 02:50:59;;;;;;;16.30;13.02;;;;;;;5.95;95.80;98299.94;4199235;28;20201;-84
2022/12/06 02:53:03;;;;;;;17.98;11.98;;;;;;;5.95;96.40;98302.53;4208366;28;20221;-84
2022/12/06 02:55:08;;;;;;;17.45;12.50;;;;;;;5.96;96.50;98299.06;4182905;28;20282;-84
2022/12/06 02:57:11;;;;;;;15.93;12.05;;;;;;;5.97;96.05;98295.53;4202243;28;20212;-84
2022/12/06 02:59:14;;;;;;;17.08;12.30;;;;;;;5.96;96.31;98296.47;4188403;28;20236;-84
2022/12/06 03:01:18;;;;;;;19.25;12.75;;;;;;;5.96;96.37;98294.72;4185984;28;20198;-84
2022/12/06 03:03:58;;;;;;;18.42;12.65;;;;;;;5.97;96.24;98292.94;4182982;28;20198;-84
2022/12/06 03:06:24;;;;;;;16.92;13.10;;;;;;;5.98;96.40;98292.03;4203386;28;20270;-84
2022/12/06 03:08:36;;;;;;;15.32;11.55;;;;;;;5.97;96.47;98282.59;4199632;28;20687;-84
2022/12/06 03:10:43;;;;;;;21.92;12.45;;;;;;;5.96;96.83;98286.13;4199101;28;20194;-84
2022/12/06 03:12:51;;;;;;;19.05;12.48;;;;;;;5.96;96.61;98296.47;4195953;28;20292;-84
2022/12/06 03:15:01;;;;;;;18.05;12.70;;;;;;;5.91;96.31;98285.47;4186630;28;20219;-84
2022/12/06 03:17:08;;;;;;;19.15;13.02;;;;;;;5.92;96.39;98284.56;4188677;28;20820;-84
2022/12/06 03:19:16;;;;;;;19.45;13.35;;;;;;;5.92;96.98;98281.97;4188906;28;20209;-84
2022/12/06 03:21:23;;;;;;;17.23;12.07;;;;;;;5.94;96.52;98280.16;4181943;28;20680;-84
2022/12/06 03:23:29;;;;;;;18.83;13.02;;;;;;;5.92;96.84;98279.41;4196815;28;20761;-84
2022/12/06 03:25:34;;;;;;;17.85;13.05;;;;;;;5.92;96.34;98276.81;4185059;28;20686;-84
2022/12/06 03:27:40;;;;;;;16.48;12.95;;;;;;;5.92;96.63;98274.22;4191323;28;20220;-84
2022/12/06 03:29:45;;;;;;;18.25;12.50;;;;;;;5.94;96.46;98277.56;4184786;28;20296;-84
2022/12/06 03:31:49;;;;;;;17.90;12.50;;;;;;;5.94;96.44;98280.16;4176598;28;20203;-84
2022/12/06 03:33:55;;;;;;;16.70;12.25;;;;;;;5.94;97.05;98262.91;4194813;28;20210;-84
2022/12/06 03:35:58;;;;;;;17.25;12.57;;;;;;;5.96;96.68;98274.00;4197655;28;20297;-84
2022/12/06 03:38:06;;;;;;;18.63;13.40;;;;;;;5.97;97.02;98262.75;4200372;28;20273;-84
2022/12/06 03:40:13;;;;;;;18.70;13.50;;;;;;;5.99;96.91;98257.50;4189692;28;20300;-84
2022/12/06 03:42:18;;;;;;;17.33;12.95;;;;;;;5.98;96.38;98258.41;4198531;28;20704;-84
2022/12/06 03:44:22;;;;;;;23.42;14.80;;;;;;;5.97;96.78;98252.41;4185774;28;20217;-84
2022/12/06 03:46:29;;;;;;;18.88;12.98;;;;;;;5.98;96.59;98256.66;4199854;28;20282;-84
2022/12/06 03:48:36;;;;;;;23.17;14.98;;;;;;;5.99;96.61;98260.09;4197713;28;20209;-84
2022/12/06 03:50:41;;;;;;;21.48;14.20;;;;;;;5.98;96.86;98269.59;4179061;28;20202;-85
2022/12/06 03:52:44;;;;;;;28.05;14.68;;;;;;;5.99;97.15;98266.09;4194944;28;20218;-84
2022/12/06 03:54:49;;;;;;;23.65;15.52;;;;;;;6.00;97.28;98278.13;4193158;28;20202;-84
2022/12/06 03:56:52;;;;;;;21.27;14.93;;;;;;;6.02;97.06;98262.53;4198536;28;20244;-84
2022/12/06 03:58:54;;;;;;;26.27;15.25;;;;;;;6.03;97.05;98266.78;4182417;28;20298;-84
2022/12/06 04:01:03;;;;;;;32.13;16.40;;;;;;;6.03;97.21;98264.19;4195056;28;20215;-84
2022/12/06 04:03:06;;;;;;;36.85;17.27;;;;;;;6.03;96.69;98262.47;4199327;28;20621;-84
2022/12/06 04:05:09;;;;;;;27.63;15.50;;;;;;;6.04;97.39;98264.13;4198893;28;20230;-84
2022/12/06 04:07:12;;;;;;;32.80;17.13;;;;;;;6.05;96.96;98255.44;4177026;28;20229;-84
2022/12/06 04:11:37;;;;;;;29.48;16.63;;;;;;;6.04;97.33;98252.94;4200034;28;20247;-84
2022/12/06 04:13:41;;;;;;;37.15;16.10;;;;;;;6.05;96.96;98252.03;4211037;28;20205;-84
2022/12/06 04:15:44;;;;;;;29.27;16.35;;;;;;;6.04;97.10;98237.41;4181600;28;20218;-84
2022/12/06 04:20:08;;;;;;;27.75;17.00;;;;;;;6.04;97.33;98237.41;4194124;28;20206;-84
2022/12/06 04:24:32;;;;;;;30.75;16.77;;;;;;;6.05;97.51;98237.34;4201057;28;20231;-84
2022/12/06 04:26:35;;;;;;;21.75;14.80;;;;;;;6.04;96.87;98235.66;4196751;28;20310;-84
2022/12/06 04:40:25;;;;;;;20.42;14.13;;;;;;;6.08;97.21;98232.84;4179802;28;20203;-85
2022/12/06 04:44:51;;;;;;;18.88;13.00;;;;;;;6.13;97.34;98230.03;4197480;28;20729;-84
2022/12/06 04:46:54;;;;;;;20.50;14.57;;;;;;;6.12;97.86;98228.38;4183903;28;20229;-84
2022/12/06 04:48:57;;;;;;;19.25;13.68;;;;;;;6.15;97.41;98223.88;4190329;28;20217;-84
2022/12/06 04:51:00;;;;;;;21.85;14.77;;;;;;;6.16;97.10;98217.78;4200923;28;20208;-84
2022/12/06 04:53:05;;;;;;;17.45;13.63;;;;;;;6.17;96.93;98214.28;4198617;28;20201;-84
2022/12/06 04:55:09;;;;;;;21.27;14.77;;;;;;;6.17;97.41;98218.63;4183379;28;20215;-84
2022/12/06 04:57:13;;;;;;;19.00;12.98;;;;;;;6.19;96.86;98216.78;4201850;28;20246;-85
2022/12/06 04:59:16;;;;;;;18.88;13.70;;;;;;;6.18;97.63;98213.38;4199324;28;20249;-84
2022/12/06 05:01:21;;;;;;;22.52;15.57;;;;;;;6.18;97.02;98215.97;4195785;28;20263;-84
2022/12/06 05:03:24;;;;;;;20.80;13.90;;;;;;;6.18;97.14;98217.72;4181701;28;20657;-84
2022/12/06 05:05:27;;;;;;;25.08;14.68;;;;;;;6.19;96.45;98216.78;4198508;28;20211;-85
2022/12/06 05:07:30;;;;;;;24.83;15.07;;;;;;;6.20;97.02;98216.72;4196000;28;20273;-84
2022/12/06 05:09:33;;;;;;;23.15;15.65;;;;;;;6.18;96.85;98210.78;4200648;28;20301;-84
2022/12/06 05:11:36;;;;;;;24.20;16.13;;;;;;;6.19;96.95;98209.88;4199429;28;20193;-84
2022/12/06 05:13:39;;;;;;;25.10;15.52;;;;;;;6.19;97.10;98209.88;4196795;28;20204;-84
2022/12/06 05:15:49;;;;;;;35.70;19.02;;;;;;;6.23;97.38;98213.97;4201504;28;20237;-84
2022/12/06 05:17:54;;;;;;;39.75;18.92;;;;;;;6.19;97.09;98209.03;4187058;28;20698;-84
2022/12/06 05:19:56;;;;;;;31.05;16.17;;;;;;;6.16;96.83;98204.84;4199439;28;20301;-84
2022/12/06 05:22:00;;;;;;;26.02;16.27;;;;;;;6.17;96.81;98218.63;4197083;28;20260;-84
2022/12/06 05:24:03;;;;;;;25.95;15.88;;;;;;;6.14;97.67;98209.25;4183292;28;20232;-84
2022/12/06 05:26:08;;;;;;;21.20;14.70;;;;;;;6.17;97.85;98213.44;4182439;28;20211;-84
2022/12/06 05:28:11;;;;;;;21.63;14.40;;;;;;;6.18;96.93;98209.94;4202586;28;20278;-84
2022/12/06 05:30:14;;;;;;;24.42;15.82;;;;;;;6.19;97.57;98209.03;4200271;28;20687;-84
2022/12/06 05:32:17;;;;;;;23.25;14.85;;;;;;;6.18;97.72;98215.97;4195197;28;20199;-84
2022/12/06 05:34:23;;;;;;;25.27;16.23;;;;;;;6.18;97.38;98215.97;4199041;28;20206;-84
2022/12/06 05:36:27;;;;;;;24.63;15.73;;;;;;;6.18;97.61;98215.97;4216104;28;20209;-86
2022/12/06 05:38:32;;;;;;;25.70;15.82;;;;;;;6.18;97.02;98210.78;4195851;28;20605;-83
2022/12/06 05:40:35;;;;;;;24.05;15.45;;;;;;;6.19;96.99;98217.66;4192452;28;20238;-83
2022/12/06 05:42:39;;;;;;;22.83;15.13;;;;;;;6.17;97.62;98214.28;4194565;28;20676;-83
2022/12/06 05:44:42;;;;;;;24.73;14.38;;;;;;;6.18;96.72;98212.53;4199157;28;20322;-83
2022/12/06 05:46:45;;;;;;;21.20;13.43;;;;;;;6.20;97.26;98218.47;4196700;28;20298;-84
2022/12/06 05:48:48;;;;;;;24.23;15.20;;;;;;;6.21;97.14;98209.81;4196325;28;20203;-84
2022/12/06 05:50:53;;;;;;;22.48;15.10;;;;;;;6.21;97.00;98210.63;4193994;28;20202;-84
2022/12/06 05:52:57;;;;;;;22.65;15.60;;;;;;;6.23;97.34;98213.13;4185862;28;20239;-84
2022/12/06 05:55:00;;;;;;;21.15;14.43;;;;;;;6.20;97.47;98214.13;4182339;28;20211;-84
2022/12/06 05:57:03;;;;;;;22.02;15.32;;;;;;;6.23;97.06;98221.75;4200481;28;20740;-84
2022/12/06 05:59:06;;;;;;;19.63;13.93;;;;;;;6.24;97.00;98215.66;4197857;28;20197;-84
2022/12/06 06:01:09;;;;;;;28.15;15.38;;;;;;;6.25;96.71;98211.31;4192099;28;20233;-84
2022/12/06 06:03:13;;;;;;;20.83;13.77;;;;;;;6.27;97.11;98215.50;4179494;28;20260;-84
2022/12/06 06:05:16;;;;;;;17.50;12.70;;;;;;;6.24;97.37;98215.66;4184658;28;20257;-84
2022/12/06 06:07:20;;;;;;;18.08;13.23;;;;;;;6.25;97.32;98219.91;4177752;28;20222;-84
2022/12/06 06:09:26;;;;;;;20.10;14.40;;;;;;;6.26;96.82;98219.00;4195666;28;20867;-85
2022/12/06 06:11:29;;;;;;;18.83;13.90;;;;;;;6.28;96.62;98222.34;4178450;28;20207;-84
2022/12/06 06:13:32;;;;;;;21.30;15.05;;;;;;;6.30;97.44;98217.09;4178412;28;20282;-84
2022/12/06 06:15:35;;;;;;;22.00;13.57;;;;;;;6.29;97.40;98221.44;4192777;28;20200;-84
2022/12/06 06:17:38;;;;;;;20.38;14.10;;;;;;;6.29;97.56;98229.19;4195581;28;20730;-84
2022/12/06 06:19:41;;;;;;;20.00;15.10;;;;;;;6.30;97.35;98230.91;4197749;28;20596;-84
2022/12/06 06:21:44;;;;;;;21.30;14.32;;;;;;;6.32;96.39;98239.41;4178568;28;20206;-84
2022/12/06 06:23:48;;;;;;;21.42;14.75;;;;;;;6.32;96.47;98241.19;4181231;28;20296;-84
2022/12/06 06:25:51;;;;;;;20.33;13.50;;;;;;;6.31;96.91;98234.31;4198126;28;20263;-84
2022/12/06 06:27:54;;;;;;;18.27;13.35;;;;;;;6.32;97.12;98233.41;4178407;28;20706;-84
2022/12/06 06:29:57;;;;;;;21.20;14.20;;;;;;;6.32;97.57;98228.22;4198499;28;20198;-84
2022/12/06 06:32:01;;;;;;;22.88;14.05;;;;;;;6.31;97.69;98224.78;4194687;28;20203;-84
2022/12/06 06:34:04;;;;;;;17.00;12.73;;;;;;;6.32;96.52;98225.63;4193466;28;20214;-84
2022/12/06 06:36:08;;;;;;;18.20;13.38;;;;;;;6.33;97.74;98219.53;4197307;28;20204;-84
2022/12/06 06:38:11;;;;;;;19.52;12.55;;;;;;;6.33;97.28;98220.38;4187529;28;20208;-84
2022/12/06 06:40:16;;;;;;;15.60;12.43;;;;;;;6.33;97.05;98212.63;4192250;28;20294;-84
2022/12/06 06:42:19;;;;;;;17.90;12.80;;;;;;;6.34;97.14;98222.03;4182519;28;21124;-84
2022/12/06 06:44:22;;;;;;;17.90;12.63;;;;;;;6.35;96.72;98220.31;4181490;28;21000;-84
2022/12/06 06:46:25;;;;;;;16.52;12.40;;;;;;;6.35;97.27;98215.97;4188948;28;20208;-84
2022/12/06 06:48:30;;;;;;;21.40;12.68;;;;;;;6.34;96.85;98213.44;4173883;28;20276;-84
2022/12/06 06:50:33;;;;;;;16.00;12.35;;;;;;;6.33;96.55;98214.34;4196406;28;20239;-84
2022/12/06 06:52:36;;;;;;;17.27;12.15;;;;;;;6.33;96.72;98217.78;4193649;28;20286;-84
2022/12/06 06:54:39;;;;;;;15.85;11.93;;;;;;;6.33;96.92;98222.97;4194773;28;20679;-84
2022/12/06 06:56:43;;;;;;;19.38;13.25;;;;;;;6.32;96.61;98221.28;4194318;28;20309;-84
2022/12/06 06:58:46;;;;;;;17.38;14.57;;;;;;;6.33;96.91;98222.97;4177361;28;20209;-84
2022/12/06 07:00:52;;;;;;;17.90;12.70;;;;;;;6.33;97.07;98233.34;4177222;28;20235;-83
2022/12/06 07:02:55;;;;;;;17.65;12.85;;;;;;;6.33;96.45;98229.88;4193198;28;20253;-84
2022/12/06 07:04:58;;;;;;;17.80;13.48;;;;;;;6.35;96.93;98228.06;4195549;28;20232;-84
2022/12/06 07:07:02;;;;;;;16.38;12.68;;;;;;;6.33;96.94;98228.16;4194183;28;20679;-84
2022/12/06 07:09:05;;;;;;;15.50;12.40;;;;;;;6.34;96.88;98229.81;4174923;28;20220;-84
2022/12/06 07:11:08;;;;;;;16.05;12.45;;;;;;;6.37;96.72;98231.41;4184678;28;20197;-84
2022/12/06 07:13:13;;;;;;;18.63;12.85;;;;;;;6.38;96.88;98227.94;4180312;28;20206;-84
2022/12/06 07:15:16;;;;;;;16.25;12.07;;;;;;;6.38;96.52;98230.50;4199264;28;20257;-84
2022/12/06 07:17:19;;;;;;;15.10;12.57;;;;;;;6.38;96.78;98226.16;4199561;28;20199;-83
2022/12/06 07:19:22;;;;;;;16.52;11.32;;;;;;;6.39;97.67;98237.34;4180880;28;20212;-83
2022/12/06 07:21:26;;;;;;;13.38;10.75;;;;;;;6.39;97.52;98232.16;4187734;28;20203;-83
2022/12/06 07:23:29;;;;;;;18.10;13.20;;;;;;;6.39;97.43;98227.84;4200824;28;20219;-83
2022/12/06 07:25:32;;;;;;;19.80;13.95;;;;;;;6.40;96.70;98231.28;4196270;28;20709;-82
2022/12/06 07:27:35;;;;;;;17.90;13.13;;;;;;;6.40;97.40;98232.09;4180004;28;20222;-82
2022/12/06 07:29:40;;;;;;;17.67;12.70;;;;;;;6.42;96.83;98225.09;4183056;28;20194;-83
2022/12/06 07:31:43;;;;;;;16.80;11.93;;;;;;;6.42;97.43;98225.09;4193431;28;20298;-83
2022/12/06 07:33:47;;;;;;;20.95;13.13;;;;;;;6.42;97.85;98234.59;4194859;28;20237;-82
2022/12/06 07:35:52;;;;;;;14.55;11.73;;;;;;;6.43;97.89;98226.75;4194379;28;20229;-83
2022/12/06 07:38:15;;;;;;;17.02;11.80;;;;;;;6.46;96.74;98228.38;4180849;28;20203;-82
2022/12/06 07:40:19;;;;;;;24.35;12.32;;;;;;;6.47;96.82;98233.47;4178894;28;20226;-82
2022/12/06 07:45:07;;;;;;;22.58;17.33;;;;;;;6.49;96.91;98233.41;4194921;28;20214;-83
2022/12/06 07:47:10;;;;;;;16.60;12.25;;;;;;;6.47;97.54;98228.28;4196318;28;20197;-82
2022/12/06 07:49:15;;;;;;;18.45;13.18;;;;;;;6.49;97.42;98229.03;4200186;28;20351;-82
2022/12/06 07:51:18;;;;;;;18.30;14.43;;;;;;;6.50;96.77;98230.72;4201553;28;20236;-82
2022/12/06 07:53:23;;;;;;;19.42;13.93;;;;;;;6.52;96.94;98236.66;4187954;28;20207;-83
2022/12/06 07:55:26;;;;;;;20.17;15.35;;;;;;;6.53;97.60;98227.16;4206241;28;20208;-83
2022/12/06 07:57:29;;;;;;;17.70;14.23;;;;;;;6.53;96.96;98233.16;4201528;28;20197;-83
2022/12/06 07:59:32;;;;;;;19.52;13.70;;;;;;;6.53;97.62;98225.41;4204248;28;20537;-82
2022/12/06 08:01:37;;;;;;;19.40;16.05;;;;;;;6.53;97.46;98224.56;4200205;28;20258;-82
2022/12/06 08:03:40;;;;;;;21.48;18.00;;;;;;;6.53;96.89;98228.00;4190877;28;20213;-82
2022/12/06 08:05:43;;;;;;;26.95;20.65;;;;;;;6.54;96.36;98228.81;4200672;28;20212;-82
2022/12/06 08:07:46;;;;;;;22.50;17.40;;;;;;;6.55;97.32;98225.31;4189695;28;20225;-82
2022/12/06 08:09:51;;;;;;;22.63;15.77;;;;;;;6.56;97.36;98225.25;4206693;28;20235;-84
2022/12/06 08:11:54;;;;;;;17.95;15.27;;;;;;;6.58;97.00;98233.78;4188216;28;20203;-83
2022/12/06 08:13:57;;;;;;;18.17;14.90;;;;;;;6.58;96.74;98231.19;4188068;28;20256;-83
2022/12/06 08:16:04;;;;;;;17.63;14.10;;;;;;;6.60;97.04;98234.56;4187076;28;20208;-83
2022/12/06 08:18:09;;;;;;;18.58;14.18;;;;;;;6.61;97.39;98231.03;4188515;28;20197;-83
2022/12/06 08:20:12;;;;;;;18.00;14.80;;;;;;;6.62;96.73;98236.13;4202495;28;20241;-84
2022/12/06 08:22:15;;;;;;;17.80;13.75;;;;;;;6.62;96.84;98235.31;4202068;28;20687;-84
2022/12/06 08:24:18;;;;;;;22.02;15.05;;;;;;;6.61;97.00;98229.28;4198404;28;20209;-84
2022/12/06 08:26:22;;;;;;;21.42;15.30;;;;;;;6.63;97.01;98236.97;4201387;28;20266;-84
2022/12/06 08:28:25;;;;;;;47.92;34.47;;;;;;;6.66;97.39;98234.22;4186176;28;20281;-84
2022/12/06 08:30:29;;;;;;;67.05;46.65;;;;;;;6.66;97.54;98237.66;4192394;28;20227;-84
2022/12/06 08:32:32;;;;;;;34.75;25.10;;;;;;;6.65;96.48;98238.56;4199172;28;20887;-83
2022/12/06 08:34:36;;;;;;;25.20;18.55;;;;;;;6.67;98.04;98243.66;4198963;28;20232;-84
2022/12/06 08:36:40;;;;;;;19.73;16.35;;;;;;;6.69;97.18;98239.25;4198174;28;20213;-84
2022/12/06 08:38:43;;;;;;;20.75;15.73;;;;;;;6.69;97.84;98244.41;4189902;28;20647;-83
2022/12/06 08:40:46;;;;;;;19.75;16.98;;;;;;;6.70;96.89;98240.94;4187584;28;20225;-83
2022/12/06 08:42:49;;;;;;;22.48;16.73;;;;;;;6.72;97.94;98242.53;4202812;28;20216;-83
2022/12/06 08:44:53;;;;;;;22.30;16.30;;;;;;;6.73;97.11;98233.00;4198453;28;20631;-84
2022/12/06 08:46:57;;;;;;;21.92;16.48;;;;;;;6.74;97.60;98237.28;4203869;28;20270;-84
2022/12/06 08:49:00;;;;;;;21.48;17.25;;;;;;;6.75;97.67;98237.19;4185850;28;20656;-84
2022/12/06 08:51:05;;;;;;;20.55;16.60;;;;;;;6.74;97.87;98238.09;4197348;28;20201;-84
2022/12/06 08:53:08;;;;;;;19.75;16.30;;;;;;;6.77;97.58;98237.13;4199551;28;20205;-84
2022/12/06 08:55:11;;;;;;;22.85;18.88;;;;;;;6.78;97.64;98244.81;4199291;28;20258;-84
2022/12/06 08:57:14;;;;;;;22.52;18.05;;;;;;;6.78;97.48;98247.41;4199390;28;20287;-84
2022/12/06 08:59:17;;;;;;;25.08;18.65;;;;;;;6.79;97.76;98243.88;4200144;28;20207;-84
2022/12/06 09:01:23;;;;;;;24.08;18.15;;;;;;;6.80;96.71;98244.75;4188549;28;20208;-83
2022/12/06 09:03:26;;;;;;;22.45;18.73;;;;;;;6.81;96.94;98244.66;4185298;28;20198;-84
2022/12/06 09:05:29;;;;;;;22.55;17.30;;;;;;;6.84;97.34;98243.66;4185788;28;20227;-84
2022/12/06 09:07:34;;;;;;;20.08;15.02;;;;;;;6.85;96.57;98243.56;4183755;28;20662;-84
2022/12/06 09:09:37;;;;;;;20.83;15.10;;;;;;;6.88;97.80;98250.34;4196154;28;20232;-84
2022/12/06 09:11:41;;;;;;;19.98;15.68;;;;;;;6.90;97.72;98248.50;4179729;28;20615;-84
2022/12/06 09:13:44;;;;;;;19.00;14.55;;;;;;;6.90;97.69;98239.00;4182188;28;20680;-83
2022/12/06 09:15:47;;;;;;;18.73;13.43;;;;;;;6.92;97.07;98237.16;4200810;28;20246;-84
2022/12/06 09:17:51;;;;;;;20.13;14.65;;;;;;;6.93;97.50;98243.19;4178522;28;20248;-84
2022/12/06 09:19:54;;;;;;;21.42;14.68;;;;;;;6.91;97.12;98245.03;4201253;28;20206;-84
2022/12/06 09:21:57;;;;;;;19.02;13.75;;;;;;;6.78;95.97;98238.78;4187053;28;20210;-84
2022/12/06 09:24:01;;;;;;;20.90;15.02;;;;;;;6.72;96.32;98242.53;4201467;28;20321;-84
2022/12/06 09:26:05;;;;;;;18.33;12.40;;;;;;;6.66;96.36;98239.38;4200366;28;20302;-84
2022/12/06 09:28:11;;;;;;;20.73;14.27;;;;;;;6.65;96.50;98242.91;4200384;28;20201;-84
2022/12/06 09:30:15;;;;;;;17.02;12.90;;;;;;;6.65;96.84;98235.97;4196216;28;20952;-83
2022/12/06 09:32:18;;;;;;;17.05;12.88;;;;;;;6.66;96.73;98241.97;4187357;28;20645;-83
2022/12/06 09:34:21;;;;;;;17.60;12.50;;;;;;;6.67;96.44;98241.91;4201736;28;20225;-83
2022/12/06 09:36:26;;;;;;;20.60;14.27;;;;;;;6.71;97.33;98243.44;4196131;28;20244;-84
2022/12/06 09:38:30;;;;;;;18.20;12.93;;;;;;;6.69;97.62;98239.25;4197415;28;20218;-84
2022/12/06 09:40:40;;;;;;;18.17;13.15;;;;;;;6.69;96.89;98241.84;4199666;28;21059;-83
2022/12/06 09:42:54;;;;;;;17.08;13.27;;;;;;;6.72;97.25;98244.25;4199940;28;20737;-83
2022/12/06 09:45:10;;;;;;;18.58;13.45;;;;;;;6.75;96.82;98244.97;4184409;28;20226;-84
2022/12/06 09:47:22;;;;;;;24.80;15.43;;;;;;;6.75;96.17;98244.97;4202057;28;20908;-83
2022/12/06 09:49:31;;;;;;;26.17;16.20;;;;;;;6.77;96.90;98247.47;4200560;28;20213;-84
2022/12/06 09:51:45;;;;;;;20.13;14.32;;;;;;;6.80;96.89;98242.97;4195191;28;20267;-84
2022/12/06 09:53:59;;;;;;;22.10;13.90;;;;;;;6.80;96.55;98245.56;4195462;28;20217;-84
2022/12/06 09:56:07;;;;;;;19.98;13.05;;;;;;;6.81;96.57;98241.22;4182039;28;20216;-85
2022/12/06 09:58:19;;;;;;;19.58;12.63;;;;;;;6.81;96.27;98238.63;4186004;28;20255;-85
2022/12/06 10:00:23;;;;;;;18.17;11.93;;;;;;;6.82;96.61;98237.72;4180503;28;20211;-84
2022/12/06 10:02:38;;;;;;;17.73;12.30;;;;;;;6.85;96.89;98234.97;4200045;28;20208;-84
2022/12/06 10:04:57;;;;;;;18.15;11.98;;;;;;;6.86;96.71;98236.66;4196214;28;20235;-83